createdAt,value
2018-09-19T00:00:07.308Z,13.15
2018-09-19T00:01:07.330Z,13.26
2018-09-19T00:02:07.342Z,13.32
2018-09-19T00:03:07.373Z,13.19
2018-09-19T00:04:07.379Z,13.12
2018-09-19T00:05:07.398Z,13.39
2018-09-19T00:06:07.416Z,13.28
2018-09-19T00:07:07.435Z,13.30
2018-09-19T00:08:07.450Z,13.33
2018-09-19T00:09:07.469Z,13.28
2018-09-19T00:10:07.487Z,13.30
2018-09-19T00:11:07.504Z,13.26
2018-09-19T00:12:07.523Z,13.29
2018-09-19T00:13:07.547Z,13.32
2018-09-19T00:14:07.566Z,13.36
2018-09-19T00:15:07.621Z,13.32
2018-09-19T00:16:07.592Z,13.38
2018-09-19T00:17:07.612Z,13.30
2018-09-19T00:18:07.629Z,13.36
2018-09-19T00:19:07.646Z,13.38
2018-09-19T00:20:07.734Z,13.38
2018-09-19T00:21:07.682Z,13.32
2018-09-19T00:22:07.698Z,13.38
2018-09-19T00:23:07.725Z,13.42
2018-09-19T00:24:07.735Z,13.29
2018-09-19T00:25:07.754Z,13.33
2018-09-19T00:26:07.770Z,13.39
2018-09-19T00:27:07.813Z,13.32
2018-09-19T00:28:07.811Z,13.38
2018-09-19T00:29:07.827Z,13.39
2018-09-19T00:30:07.843Z,13.38
2018-09-19T00:31:07.865Z,13.33
2018-09-19T00:32:07.877Z,13.29
2018-09-19T00:33:07.897Z,13.32
2018-09-19T00:34:07.913Z,13.28
2018-09-19T00:35:07.931Z,13.25
2018-09-19T00:36:07.953Z,13.26
2018-09-19T00:37:07.965Z,13.20
2018-09-19T00:38:07.988Z,13.20
2018-09-19T00:39:08.008Z,13.28
2018-09-19T00:40:08.023Z,13.25
2018-09-19T00:41:08.037Z,13.25
2018-09-19T00:42:08.067Z,13.26
2018-09-19T00:43:08.075Z,13.12
2018-09-19T00:44:08.092Z,13.17
2018-09-19T00:45:08.107Z,13.12
2018-09-19T00:46:08.126Z,13.10
2018-09-19T00:47:08.144Z,13.23
2018-09-19T00:48:08.174Z,13.14
2018-09-19T00:49:08.179Z,13.25
2018-09-19T00:50:08.198Z,13.10
2018-09-19T00:51:08.218Z,13.10
2018-09-19T00:52:08.237Z,13.22
2018-09-19T00:53:08.251Z,13.11
2018-09-19T00:54:08.302Z,13.11
2018-09-19T00:55:08.284Z,13.11
2018-09-19T00:56:08.305Z,13.11
2018-09-19T00:57:08.323Z,13.08
2018-09-19T00:58:08.340Z,13.10
2018-09-19T00:59:08.357Z,13.08
2018-09-19T01:00:08.377Z,13.10
2018-09-19T01:01:08.389Z,13.11
2018-09-19T01:02:08.412Z,13.14
2018-09-19T01:03:08.431Z,13.10
2018-09-19T01:04:08.454Z,13.08
2018-09-19T01:05:08.461Z,13.15
2018-09-19T01:06:08.479Z,13.07
2018-09-19T01:07:08.498Z,13.23
2018-09-19T01:08:08.517Z,13.12
2018-09-19T01:09:08.531Z,13.10
2018-09-19T01:10:08.561Z,13.11
2018-09-19T01:11:08.570Z,13.07
2018-09-19T01:12:08.585Z,13.15
2018-09-19T01:13:08.604Z,13.10
2018-09-19T01:14:08.620Z,13.00
2018-09-19T01:15:08.640Z,13.05
2018-09-19T01:16:08.655Z,13.01
2018-09-19T01:17:08.671Z,13.05
2018-09-19T01:18:08.693Z,13.07
2018-09-19T01:19:08.714Z,13.04
2018-09-19T01:20:08.732Z,13.01
2018-09-19T01:21:08.741Z,13.00
2018-09-19T01:22:08.761Z,13.00
2018-09-19T01:23:08.778Z,13.04
2018-09-19T01:24:08.795Z,12.96
2018-09-19T01:25:08.813Z,13.00
2018-09-19T01:26:08.832Z,12.96
2018-09-19T01:27:08.848Z,13.04
2018-09-19T01:28:08.866Z,13.07
2018-09-19T01:29:08.888Z,12.97
2018-09-19T01:30:08.901Z,13.11
2018-09-19T01:31:08.918Z,13.08
2018-09-19T01:32:08.959Z,13.05
2018-09-19T01:33:08.956Z,13.10
2018-09-19T01:34:08.970Z,13.10
2018-09-19T01:35:08.989Z,13.10
2018-09-19T01:36:09.010Z,13.05
2018-09-19T01:37:09.025Z,12.97
2018-09-19T01:38:09.043Z,13.03
2018-09-19T01:39:09.065Z,13.08
2018-09-19T01:40:09.089Z,13.11
2018-09-19T01:41:09.095Z,13.04
2018-09-19T01:42:09.111Z,13.11
2018-09-19T01:43:09.134Z,13.07
2018-09-19T01:44:09.148Z,13.08
2018-09-19T01:45:09.164Z,13.01
2018-09-19T01:46:09.184Z,13.08
2018-09-19T01:47:09.214Z,13.08
2018-09-19T01:48:09.216Z,13.14
2018-09-19T01:49:09.238Z,13.10
2018-09-19T01:50:09.253Z,13.08
2018-09-19T01:51:09.273Z,13.10
2018-09-19T01:52:09.288Z,13.08
2018-09-19T01:53:09.306Z,13.11
2018-09-19T01:54:09.334Z,13.12
2018-09-19T01:55:09.428Z,13.12
2018-09-19T01:56:09.367Z,13.12
2018-09-19T01:57:09.375Z,13.10
2018-09-19T01:58:09.394Z,13.14
2018-09-19T01:59:09.412Z,13.12
2018-09-19T02:00:09.440Z,13.08
2018-09-19T02:01:09.448Z,13.12
2018-09-19T02:02:09.485Z,13.12
2018-09-19T02:03:09.488Z,13.05
2018-09-19T02:04:09.506Z,13.11
2018-09-19T02:05:09.520Z,13.05
2018-09-19T02:06:09.550Z,13.01
2018-09-19T02:07:09.557Z,13.00
2018-09-19T02:08:09.577Z,12.95
2018-09-19T02:09:09.591Z,12.93
2018-09-19T02:10:09.611Z,13.03
2018-09-19T02:11:09.621Z,13.03
2018-09-19T02:12:09.643Z,12.95
2018-09-19T02:13:09.660Z,12.97
2018-09-19T02:14:09.674Z,12.96
2018-09-19T02:15:09.700Z,13.07
2018-09-19T02:16:09.715Z,13.04
2018-09-19T02:17:09.732Z,12.97
2018-09-19T02:18:09.751Z,13.01
2018-09-19T02:19:09.764Z,13.07
2018-09-19T02:20:09.782Z,13.04
2018-09-19T02:21:09.807Z,13.05
2018-09-19T02:22:09.819Z,13.04
2018-09-19T02:23:09.835Z,12.96
2018-09-19T02:24:09.852Z,12.97
2018-09-19T02:25:09.872Z,12.87
2018-09-19T02:26:09.889Z,12.96
2018-09-19T02:27:09.908Z,12.92
2018-09-19T02:28:09.925Z,12.92
2018-09-19T02:29:09.938Z,12.93
2018-09-19T02:30:09.965Z,12.89
2018-09-19T02:31:09.979Z,12.87
2018-09-19T02:32:09.996Z,12.93
2018-09-19T02:33:10.011Z,12.95
2018-09-19T02:34:10.029Z,12.87
2018-09-19T02:35:10.046Z,12.86
2018-09-19T02:36:10.072Z,12.90
2018-09-19T02:37:10.082Z,12.82
2018-09-19T02:38:10.099Z,12.83
2018-09-19T02:39:10.127Z,12.77
2018-09-19T02:40:10.148Z,12.74
2018-09-19T02:41:10.151Z,12.78
2018-09-19T02:42:10.174Z,12.75
2018-09-19T02:43:10.188Z,12.78
2018-09-19T02:44:10.203Z,12.75
2018-09-19T02:45:10.222Z,12.78
2018-09-19T02:46:10.243Z,12.78
2018-09-19T02:47:10.280Z,12.77
2018-09-19T02:48:10.275Z,12.75
2018-09-19T02:49:10.296Z,12.78
2018-09-19T02:50:10.312Z,12.79
2018-09-19T02:51:10.328Z,12.82
2018-09-19T02:52:10.346Z,12.82
2018-09-19T02:53:10.370Z,12.79
2018-09-19T02:54:10.387Z,12.79
2018-09-19T02:55:10.403Z,12.78
2018-09-19T02:56:10.482Z,12.77
2018-09-19T02:57:10.430Z,12.79
2018-09-19T02:58:10.449Z,12.78
2018-09-19T02:59:10.474Z,12.82
2018-09-19T03:00:10.486Z,12.75
2018-09-19T03:01:10.502Z,12.71
2018-09-19T03:02:10.520Z,12.78
2018-09-19T03:03:10.540Z,12.71
2018-09-19T03:04:10.556Z,12.77
2018-09-19T03:05:10.575Z,12.75
2018-09-19T03:06:10.594Z,12.65
2018-09-19T03:07:10.607Z,12.68
2018-09-19T03:08:10.628Z,12.72
2018-09-19T03:09:10.653Z,12.75
2018-09-19T03:10:10.662Z,12.71
2018-09-19T03:11:10.675Z,12.67
2018-09-19T03:12:10.694Z,12.71
2018-09-19T03:13:10.716Z,12.67
2018-09-19T03:14:10.730Z,12.75
2018-09-19T03:15:10.747Z,12.77
2018-09-19T03:16:10.770Z,12.77
2018-09-19T03:17:10.820Z,12.79
2018-09-19T03:18:10.803Z,12.77
2018-09-19T03:19:10.817Z,12.77
2018-09-19T03:20:10.835Z,12.72
2018-09-19T03:21:10.851Z,12.71
2018-09-19T03:22:10.874Z,12.79
2018-09-19T03:23:10.886Z,12.70
2018-09-19T03:24:10.903Z,12.74
2018-09-19T03:25:10.928Z,12.71
2018-09-19T03:26:10.938Z,12.68
2018-09-19T03:27:10.963Z,12.78
2018-09-19T03:28:10.975Z,12.75
2018-09-19T03:29:10.992Z,12.71
2018-09-19T03:30:11.010Z,12.74
2018-09-19T03:31:11.030Z,12.67
2018-09-19T03:32:11.045Z,12.70
2018-09-19T03:33:11.062Z,12.62
2018-09-19T03:34:11.083Z,12.68
2018-09-19T03:35:11.115Z,12.62
2018-09-19T03:36:11.113Z,12.67
2018-09-19T03:37:11.132Z,12.65
2018-09-19T03:38:11.149Z,12.60
2018-09-19T03:39:11.166Z,12.70
2018-09-19T03:40:11.182Z,12.57
2018-09-19T03:41:11.201Z,12.56
2018-09-19T03:42:11.222Z,12.56
2018-09-19T03:43:11.237Z,12.54
2018-09-19T03:44:11.261Z,12.52
2018-09-19T03:45:11.270Z,12.39
2018-09-19T03:46:11.287Z,12.46
2018-09-19T03:47:11.303Z,12.42
2018-09-19T03:48:11.325Z,12.50
2018-09-19T03:49:11.341Z,12.46
2018-09-19T03:50:11.358Z,12.46
2018-09-19T03:51:11.375Z,12.50
2018-09-19T03:52:11.392Z,12.45
2018-09-19T03:53:11.407Z,12.45
2018-09-19T03:54:11.437Z,12.38
2018-09-19T03:55:11.448Z,12.45
2018-09-19T03:56:11.464Z,12.42
2018-09-19T03:57:11.479Z,12.42
2018-09-19T03:58:11.520Z,12.41
2018-09-19T03:59:11.510Z,12.41
2018-09-19T04:00:11.569Z,12.38
2018-09-19T04:01:11.545Z,12.46
2018-09-19T04:02:11.564Z,12.49
2018-09-19T04:03:11.579Z,12.45
2018-09-19T04:04:11.600Z,12.32
2018-09-19T04:05:11.615Z,12.35
2018-09-19T04:06:11.633Z,12.37
2018-09-19T04:07:11.649Z,12.35
2018-09-19T04:08:11.675Z,12.29
2018-09-19T04:09:11.683Z,12.28
2018-09-19T04:10:11.701Z,12.27
2018-09-19T04:11:11.716Z,12.31
2018-09-19T04:12:11.757Z,12.29
2018-09-19T04:13:11.751Z,12.24
2018-09-19T04:14:11.768Z,12.28
2018-09-19T04:15:11.791Z,12.32
2018-09-19T04:16:11.803Z,12.29
2018-09-19T04:17:11.819Z,12.35
2018-09-19T04:18:11.836Z,12.38
2018-09-19T04:19:11.853Z,12.38
2018-09-19T04:20:11.872Z,12.32
2018-09-19T04:21:11.887Z,12.37
2018-09-19T04:22:11.910Z,12.42
2018-09-19T04:23:11.926Z,12.37
2018-09-19T04:24:11.946Z,12.37
2018-09-19T04:25:11.955Z,12.37
2018-09-19T04:26:11.980Z,12.35
2018-09-19T04:27:12.000Z,12.32
2018-09-19T04:28:12.008Z,12.41
2018-09-19T04:29:12.025Z,12.35
2018-09-19T04:30:12.044Z,12.31
2018-09-19T04:31:12.058Z,12.28
2018-09-19T04:32:12.143Z,12.27
2018-09-19T04:33:12.093Z,12.20
2018-09-19T04:34:12.115Z,12.28
2018-09-19T04:35:12.132Z,12.10
2018-09-19T04:36:12.146Z,12.09
2018-09-19T04:37:12.160Z,12.05
2018-09-19T04:38:12.177Z,12.04
2018-09-19T04:39:12.196Z,12.04
2018-09-19T04:40:12.221Z,12.13
2018-09-19T04:41:12.229Z,12.14
2018-09-19T04:42:12.245Z,12.02
2018-09-19T04:43:12.263Z,12.10
2018-09-19T04:44:12.279Z,12.12
2018-09-19T04:45:12.383Z,12.09
2018-09-19T04:46:12.314Z,12.10
2018-09-19T04:47:12.330Z,12.13
2018-09-19T04:48:12.348Z,12.16
2018-09-19T04:49:12.363Z,12.17
2018-09-19T04:50:12.390Z,12.16
2018-09-19T04:51:12.404Z,12.19
2018-09-19T04:52:12.417Z,12.27
2018-09-19T04:53:12.432Z,12.19
2018-09-19T04:54:12.448Z,12.28
2018-09-19T04:55:12.466Z,12.21
2018-09-19T04:56:12.481Z,12.24
2018-09-19T04:57:12.499Z,12.27
2018-09-19T04:58:12.515Z,12.27
2018-09-19T04:59:12.533Z,12.32
2018-09-19T05:00:12.551Z,12.31
2018-09-19T05:01:12.567Z,12.32
2018-09-19T05:02:12.582Z,12.28
2018-09-19T05:03:12.605Z,12.28
2018-09-19T05:04:12.621Z,12.27
2018-09-19T05:05:12.643Z,12.31
2018-09-19T05:06:12.650Z,12.32
2018-09-19T05:07:12.685Z,12.27
2018-09-19T05:08:12.696Z,12.24
2018-09-19T05:09:12.702Z,12.29
2018-09-19T05:10:12.718Z,12.28
2018-09-19T05:11:12.750Z,12.31
2018-09-19T05:12:12.751Z,12.31
2018-09-19T05:13:12.767Z,12.37
2018-09-19T05:14:12.785Z,12.29
2018-09-19T05:15:12.802Z,12.35
2018-09-19T05:16:12.820Z,12.37
2018-09-19T05:17:12.834Z,12.28
2018-09-19T05:18:12.853Z,12.34
2018-09-19T05:19:12.876Z,12.34
2018-09-19T05:20:12.891Z,12.31
2018-09-19T05:21:12.916Z,12.27
2018-09-19T05:22:12.922Z,12.31
2018-09-19T05:23:12.937Z,12.29
2018-09-19T05:24:12.955Z,12.34
2018-09-19T05:25:12.971Z,12.31
2018-09-19T05:26:12.987Z,12.35
2018-09-19T05:27:13.010Z,12.31
2018-09-19T05:28:13.022Z,12.29
2018-09-19T05:29:13.046Z,12.32
2018-09-19T05:30:13.055Z,12.34
2018-09-19T05:31:13.076Z,12.31
2018-09-19T05:32:13.092Z,12.34
2018-09-19T05:33:13.108Z,12.37
2018-09-19T05:34:13.159Z,12.29
2018-09-19T05:35:13.145Z,12.23
2018-09-19T05:36:13.160Z,12.31
2018-09-19T05:37:13.178Z,12.27
2018-09-19T05:38:13.203Z,12.32
2018-09-19T05:39:13.209Z,12.31
2018-09-19T05:40:13.230Z,12.23
2018-09-19T05:41:13.245Z,12.23
2018-09-19T05:42:13.261Z,12.17
2018-09-19T05:43:13.278Z,12.20
2018-09-19T05:44:13.296Z,12.21
2018-09-19T05:45:13.312Z,12.29
2018-09-19T05:46:13.354Z,12.23
2018-09-19T05:47:13.348Z,12.21
2018-09-19T05:48:13.364Z,12.21
2018-09-19T05:49:13.382Z,12.31
2018-09-19T05:50:13.400Z,12.21
2018-09-19T05:51:13.413Z,12.21
2018-09-19T05:52:13.431Z,12.35
2018-09-19T05:53:13.448Z,12.31
2018-09-19T05:54:13.463Z,12.27
2018-09-19T05:55:13.483Z,12.29
2018-09-19T05:56:13.507Z,12.29
2018-09-19T05:57:13.515Z,12.32
2018-09-19T05:58:13.532Z,12.29
2018-09-19T05:59:13.550Z,12.28
2018-09-19T06:00:13.567Z,12.21
2018-09-19T06:01:13.583Z,12.28
2018-09-19T06:02:13.601Z,12.31
2018-09-19T06:03:13.619Z,12.29
2018-09-19T06:04:13.637Z,12.29
2018-09-19T06:05:13.650Z,12.34
2018-09-19T06:06:13.668Z,12.37
2018-09-19T06:07:13.691Z,12.31
2018-09-19T06:08:13.703Z,12.31
2018-09-19T06:09:13.720Z,12.35
2018-09-19T06:10:13.736Z,12.37
2018-09-19T06:11:13.755Z,12.38
2018-09-19T06:12:13.772Z,12.38
2018-09-19T06:13:13.793Z,12.41
2018-09-19T06:14:13.809Z,12.37
2018-09-19T06:15:13.821Z,12.42
2018-09-19T06:16:13.850Z,12.39
2018-09-19T06:17:13.858Z,12.46
2018-09-19T06:18:13.876Z,12.35
2018-09-19T06:19:13.891Z,12.42
2018-09-19T06:20:13.906Z,12.47
2018-09-19T06:21:13.926Z,12.45
2018-09-19T06:22:13.941Z,12.35
2018-09-19T06:23:13.958Z,12.46
2018-09-19T06:24:13.975Z,12.42
2018-09-19T06:25:13.995Z,12.41
2018-09-19T06:26:14.011Z,12.49
2018-09-19T06:27:14.028Z,12.52
2018-09-19T06:28:14.044Z,12.50
2018-09-19T06:29:14.060Z,12.52
2018-09-19T06:30:14.083Z,12.56
2018-09-19T06:31:14.098Z,12.59
2018-09-19T06:32:14.112Z,12.65
2018-09-19T06:33:14.256Z,12.56
2018-09-19T06:34:14.146Z,12.54
2018-09-19T06:35:14.168Z,12.53
2018-09-19T06:36:14.184Z,12.57
2018-09-19T06:37:14.196Z,12.67
2018-09-19T06:38:14.220Z,12.65
2018-09-19T06:39:14.236Z,12.62
2018-09-19T06:40:14.351Z,12.67
2018-09-19T06:41:14.263Z,12.67
2018-09-19T06:42:14.283Z,12.74
2018-09-19T06:43:14.345Z,12.77
2018-09-19T06:44:14.342Z,12.93
2018-09-19T06:45:14.334Z,12.92
2018-09-19T06:46:14.353Z,12.96
2018-09-19T06:47:14.371Z,12.93
2018-09-19T06:48:14.386Z,13.05
2018-09-19T06:49:14.407Z,13.15
2018-09-19T06:50:14.420Z,13.23
2018-09-19T06:51:14.438Z,13.29
2018-09-19T06:52:14.513Z,13.19
2018-09-19T06:53:14.471Z,13.32
2018-09-19T06:54:14.493Z,13.36
2018-09-19T06:55:14.505Z,13.44
2018-09-19T06:56:14.526Z,13.42
2018-09-19T06:57:14.542Z,13.42
2018-09-19T06:58:14.560Z,13.55
2018-09-19T06:59:14.576Z,13.54
2018-09-19T07:00:14.593Z,13.60
2018-09-19T07:01:14.610Z,13.60
2018-09-19T07:02:14.627Z,13.57
2018-09-19T07:03:14.643Z,13.64
2018-09-19T07:04:14.663Z,13.67
2018-09-19T07:05:14.680Z,13.70
2018-09-19T07:06:14.698Z,13.75
2018-09-19T07:07:14.717Z,13.73
2018-09-19T07:08:14.731Z,13.88
2018-09-19T07:09:14.749Z,13.84
2018-09-19T07:10:14.768Z,13.96
2018-09-19T07:11:14.783Z,13.97
2018-09-19T07:12:14.800Z,13.99
2018-09-19T07:13:14.825Z,13.97
2018-09-19T07:14:14.839Z,13.97
2018-09-19T07:15:14.855Z,14.02
2018-09-19T07:16:14.870Z,13.99
2018-09-19T07:17:14.887Z,14.03
2018-09-19T07:18:14.912Z,13.99
2018-09-19T07:19:14.927Z,13.99
2018-09-19T07:20:14.946Z,14.00
2018-09-19T07:21:14.959Z,14.10
2018-09-19T07:22:14.974Z,14.21
2018-09-19T07:23:14.993Z,14.27
2018-09-19T07:24:15.015Z,14.22
2018-09-19T07:25:15.085Z,14.45
2018-09-19T07:26:15.047Z,14.42
2018-09-19T07:27:15.067Z,14.52
2018-09-19T07:28:15.082Z,14.46
2018-09-19T07:29:15.100Z,14.54
2018-09-19T07:30:15.116Z,14.54
2018-09-19T07:31:15.203Z,14.68
2018-09-19T07:32:15.152Z,14.68
2018-09-19T07:33:15.169Z,14.77
2018-09-19T07:34:15.186Z,14.78
2018-09-19T07:35:15.205Z,14.77
2018-09-19T07:36:15.229Z,14.69
2018-09-19T07:37:15.240Z,14.58
2018-09-19T07:38:15.263Z,14.68
2018-09-19T07:39:15.275Z,14.69
2018-09-19T07:40:15.359Z,14.69
2018-09-19T07:41:15.312Z,14.72
2018-09-19T07:42:15.333Z,14.54
2018-09-19T07:43:15.346Z,14.61
2018-09-19T07:44:15.370Z,14.69
2018-09-19T07:45:15.384Z,14.72
2018-09-19T07:46:15.398Z,14.75
2018-09-19T07:47:15.417Z,14.92
2018-09-19T07:48:15.482Z,14.81
2018-09-19T07:49:15.486Z,14.75
2018-09-19T07:50:15.469Z,14.81
2018-09-19T07:51:15.487Z,14.81
2018-09-19T07:52:15.504Z,14.86
2018-09-19T07:53:15.524Z,14.98
2018-09-19T07:54:15.542Z,14.98
2018-09-19T07:55:15.625Z,14.98
2018-09-19T07:56:15.578Z,14.91
2018-09-19T07:57:15.596Z,15.06
2018-09-19T07:58:15.619Z,15.11
2018-09-19T07:59:15.630Z,14.96
2018-09-19T08:00:15.647Z,14.92
2018-09-19T08:01:15.707Z,14.95
2018-09-19T08:02:15.684Z,15.01
2018-09-19T08:03:15.700Z,15.28
2018-09-19T08:04:15.719Z,15.44
2018-09-19T08:05:15.739Z,15.35
2018-09-19T08:06:15.756Z,15.46
2018-09-19T08:07:15.774Z,15.44
2018-09-19T08:08:15.791Z,15.56
2018-09-19T08:09:15.864Z,15.65
2018-09-19T08:10:15.826Z,15.97
2018-09-19T08:11:15.849Z,15.93
2018-09-19T08:12:15.865Z,16.05
2018-09-19T08:13:15.882Z,16.01
2018-09-19T08:14:15.899Z,15.90
2018-09-19T08:15:15.919Z,15.78
2018-09-19T08:16:15.939Z,15.68
2018-09-19T08:17:15.956Z,15.56
2018-09-19T08:18:15.970Z,15.41
2018-09-19T08:19:15.988Z,15.44
2018-09-19T08:20:16.009Z,15.51
2018-09-19T08:21:16.028Z,15.67
2018-09-19T08:22:16.047Z,15.74
2018-09-19T08:23:16.061Z,16.01
2018-09-19T08:24:16.081Z,16.09
2018-09-19T08:25:16.105Z,16.15
2018-09-19T08:26:16.119Z,16.05
2018-09-19T08:27:16.140Z,16.12
2018-09-19T08:28:16.154Z,15.93
2018-09-19T08:29:16.171Z,15.94
2018-09-19T08:30:16.190Z,16.08
2018-09-19T08:31:16.212Z,16.08
2018-09-19T08:32:16.227Z,16.17
2018-09-19T08:33:16.245Z,16.31
2018-09-19T08:34:16.264Z,16.20
2018-09-19T08:35:16.284Z,16.02
2018-09-19T08:36:16.304Z,16.05
2018-09-19T08:37:16.319Z,15.78
2018-09-19T08:38:16.342Z,15.74
2018-09-19T08:39:16.360Z,15.75
2018-09-19T08:40:16.380Z,15.86
2018-09-19T08:41:16.393Z,15.97
2018-09-19T08:42:16.422Z,16.38
2018-09-19T08:43:16.431Z,16.64
2018-09-19T08:44:16.452Z,16.85
2018-09-19T08:45:16.467Z,17.03
2018-09-19T08:46:16.485Z,17.04
2018-09-19T08:47:16.505Z,17.19
2018-09-19T08:48:16.530Z,16.68
2018-09-19T08:49:16.542Z,16.64
2018-09-19T08:50:16.562Z,16.82
2018-09-19T08:51:16.586Z,16.71
2018-09-19T08:52:16.597Z,16.38
2018-09-19T08:53:16.618Z,16.68
2018-09-19T08:54:16.636Z,16.97
2018-09-19T08:55:16.657Z,17.11
2018-09-19T08:56:16.686Z,17.19
2018-09-19T08:57:16.702Z,16.88
2018-09-19T08:58:16.710Z,17.03
2018-09-19T08:59:16.730Z,17.06
2018-09-19T09:00:16.758Z,17.15
2018-09-19T09:01:16.767Z,17.28
2018-09-19T09:02:16.794Z,17.30
2018-09-19T09:03:16.807Z,17.04
2018-09-19T09:04:16.827Z,17.12
2018-09-19T09:05:16.860Z,16.60
2018-09-19T09:06:16.863Z,16.60
2018-09-19T09:07:16.882Z,16.82
2018-09-19T09:08:16.902Z,17.19
2018-09-19T09:09:16.924Z,17.31
2018-09-19T09:10:16.941Z,17.51
2018-09-19T09:11:16.960Z,17.28
2018-09-19T09:12:17.063Z,17.18
2018-09-19T09:13:16.998Z,17.55
2018-09-19T09:14:17.021Z,17.59
2018-09-19T09:15:17.038Z,17.30
2018-09-19T09:16:17.055Z,17.26
2018-09-19T09:17:17.076Z,17.54
2018-09-19T09:18:17.095Z,17.49
2018-09-19T09:19:17.117Z,17.01
2018-09-19T09:20:17.133Z,17.07
2018-09-19T09:21:17.153Z,16.70
2018-09-19T09:22:17.177Z,16.89
2018-09-19T09:23:17.294Z,17.07
2018-09-19T09:24:17.212Z,17.26
2018-09-19T09:25:17.234Z,17.63
2018-09-19T09:26:17.256Z,17.92
2018-09-19T09:27:17.343Z,18.21
2018-09-19T09:28:17.293Z,18.47
2018-09-19T09:29:17.309Z,17.71
2018-09-19T09:30:17.332Z,17.97
2018-09-19T09:31:17.444Z,17.86
2018-09-19T09:33:17.391Z,18.18
2018-09-19T09:34:17.502Z,18.10
2018-09-19T09:35:17.433Z,18.20
2018-09-19T09:36:17.450Z,18.25
2018-09-19T09:37:17.473Z,18.23
2018-09-19T09:38:17.488Z,18.62
2018-09-19T09:39:17.539Z,18.47
2018-09-19T09:40:17.598Z,18.76
2018-09-19T09:41:17.549Z,18.99
2018-09-19T09:42:17.570Z,18.66
2018-09-19T09:43:17.592Z,18.84
2018-09-19T09:44:17.615Z,18.66
2018-09-19T09:45:17.631Z,19.10
2018-09-19T09:46:17.653Z,19.39
2018-09-19T09:47:17.675Z,19.26
2018-09-19T09:48:17.705Z,19.08
2018-09-19T09:49:17.713Z,19.18
2018-09-19T09:50:17.781Z,19.16
2018-09-19T09:51:17.777Z,19.29
2018-09-19T09:52:17.778Z,19.44
2018-09-19T09:53:17.885Z,19.43
2018-09-19T09:54:17.817Z,19.50
2018-09-19T09:55:17.943Z,18.94
2018-09-19T09:56:17.859Z,18.27
2018-09-19T09:57:17.877Z,18.37
2018-09-19T09:58:17.906Z,18.63
2018-09-19T09:59:17.922Z,19.08
2018-09-19T10:00:17.946Z,19.22
2018-09-19T10:01:17.963Z,19.16
2018-09-19T10:02:17.990Z,19.25
2018-09-19T10:03:18.006Z,19.77
2018-09-19T10:04:18.024Z,19.31
2018-09-19T10:05:18.076Z,19.10
2018-09-19T10:06:18.073Z,19.25
2018-09-19T10:07:18.090Z,19.61
2018-09-19T10:08:18.109Z,19.76
2018-09-19T10:09:18.131Z,19.83
2018-09-19T10:10:18.155Z,20.02
2018-09-19T10:11:18.174Z,20.24
2018-09-19T10:12:18.195Z,20.42
2018-09-19T10:13:18.220Z,20.70
2018-09-19T10:14:18.241Z,20.48
2018-09-19T10:15:18.259Z,20.36
2018-09-19T10:16:18.286Z,20.43
2018-09-19T10:17:18.316Z,20.69
2018-09-19T10:18:18.377Z,21.10
2018-09-19T10:19:18.347Z,21.24
2018-09-19T10:20:18.366Z,20.94
2018-09-19T10:21:18.390Z,21.09
2018-09-19T10:22:18.422Z,21.01
2018-09-19T10:23:18.434Z,19.91
2018-09-19T10:24:18.455Z,20.17
2018-09-19T10:25:18.477Z,20.51
2018-09-19T10:26:18.500Z,20.47
2018-09-19T10:27:18.521Z,20.20
2018-09-19T10:28:18.546Z,20.87
2018-09-19T10:29:18.564Z,21.27
2018-09-19T10:30:18.590Z,20.97
2018-09-19T10:31:18.610Z,20.91
2018-09-19T10:32:18.630Z,21.01
2018-09-19T10:33:18.652Z,20.91
2018-09-19T10:34:18.675Z,21.13
2018-09-19T10:35:18.737Z,20.43
2018-09-19T10:36:18.720Z,19.88
2018-09-19T10:37:18.742Z,20.01
2018-09-19T10:38:18.765Z,20.38
2018-09-19T10:39:18.785Z,20.21
2018-09-19T10:40:18.815Z,20.92
2018-09-19T10:41:18.830Z,21.34
2018-09-19T10:42:18.852Z,21.44
2018-09-19T10:43:18.872Z,22.02
2018-09-19T10:44:18.896Z,21.91
2018-09-19T10:45:18.918Z,22.33
2018-09-19T10:46:18.941Z,21.84
2018-09-19T10:47:18.963Z,21.68
2018-09-19T10:48:18.985Z,21.16
2018-09-19T10:49:19.081Z,21.98
2018-09-19T10:50:19.030Z,21.32
2018-09-19T10:51:19.055Z,21.16
2018-09-19T10:52:19.076Z,21.74
2018-09-19T10:53:19.097Z,21.37
2018-09-19T10:54:19.121Z,21.61
2018-09-19T10:55:19.143Z,21.29
2018-09-19T10:56:19.168Z,21.21
2018-09-19T10:57:19.189Z,21.19
2018-09-19T10:58:19.216Z,21.38
2018-09-19T10:59:19.334Z,22.02
2018-09-19T11:00:19.258Z,22.15
2018-09-19T11:01:19.282Z,21.67
2018-09-19T11:02:19.303Z,21.27
2018-09-19T11:03:19.344Z,21.13
2018-09-19T11:04:19.353Z,21.34
2018-09-19T11:05:19.372Z,21.64
2018-09-19T11:06:19.395Z,21.94
2018-09-19T11:07:19.418Z,22.05
2018-09-19T11:08:19.445Z,22.31
2018-09-19T11:09:19.463Z,22.22
2018-09-19T11:10:19.488Z,22.28
2018-09-19T11:11:19.510Z,22.46
2018-09-19T11:12:19.532Z,21.65
2018-09-19T11:13:19.557Z,21.67
2018-09-19T11:14:19.582Z,21.59
2018-09-19T11:15:19.608Z,21.42
2018-09-19T11:16:19.628Z,21.28
2018-09-19T11:17:19.654Z,21.54
2018-09-19T11:18:19.674Z,21.40
2018-09-19T11:19:19.699Z,20.97
2018-09-19T11:20:19.722Z,21.21
2018-09-19T11:21:19.743Z,21.07
2018-09-19T11:22:19.770Z,20.62
2018-09-19T11:23:19.789Z,21.40
2018-09-19T11:24:19.812Z,21.58
2018-09-19T11:25:19.837Z,21.91
2018-09-19T11:26:19.889Z,22.45
2018-09-19T11:27:19.882Z,22.14
2018-09-19T11:28:19.906Z,22.12
2018-09-19T11:29:19.928Z,21.62
2018-09-19T11:30:19.953Z,21.50
2018-09-19T11:31:20.031Z,21.82
2018-09-19T11:32:20.002Z,21.79
2018-09-19T11:33:20.028Z,22.15
2018-09-19T11:34:20.046Z,22.22
2018-09-19T11:35:20.071Z,21.75
2018-09-19T11:36:20.095Z,21.94
2018-09-19T11:37:20.117Z,21.91
2018-09-19T11:38:20.138Z,21.91
2018-09-19T11:39:20.164Z,22.10
2018-09-19T11:40:20.188Z,21.65
2018-09-19T11:41:20.215Z,21.88
2018-09-19T11:42:20.235Z,22.30
2018-09-19T11:43:20.277Z,22.75
2018-09-19T11:44:20.280Z,22.86
2018-09-19T11:45:20.304Z,22.76
2018-09-19T11:46:20.329Z,22.55
2018-09-19T11:47:20.354Z,22.76
2018-09-19T11:48:20.379Z,22.67
2018-09-19T11:49:20.401Z,22.92
2018-09-19T11:50:20.429Z,22.88
2018-09-19T11:51:20.451Z,22.60
2018-09-19T11:52:20.472Z,23.09
2018-09-19T11:53:20.498Z,22.61
2018-09-19T11:54:20.520Z,22.60
2018-09-19T11:55:20.544Z,22.73
2018-09-19T11:56:20.569Z,22.79
2018-09-19T11:57:20.593Z,23.12
2018-09-19T11:58:20.617Z,23.04
2018-09-19T11:59:20.643Z,22.94
2018-09-19T12:00:20.667Z,21.68
2018-09-19T12:01:20.692Z,22.39
2018-09-19T12:02:20.714Z,22.47
2018-09-19T12:03:20.740Z,21.71
2018-09-19T12:04:20.765Z,21.59
2018-09-19T12:05:20.788Z,21.65
2018-09-19T12:06:20.815Z,21.17
2018-09-19T12:07:20.923Z,22.06
2018-09-19T12:08:20.862Z,22.54
2018-09-19T12:09:20.886Z,23.04
2018-09-19T12:10:20.910Z,23.05
2018-09-19T12:11:20.935Z,22.33
2018-09-19T12:12:20.959Z,22.21
2018-09-19T12:13:20.982Z,21.96
2018-09-19T12:14:21.007Z,22.33
2018-09-19T12:15:21.032Z,22.22
2018-09-19T12:16:21.057Z,21.61
2018-09-19T12:17:21.081Z,22.05
2018-09-19T12:18:21.106Z,21.22
2018-09-19T12:19:21.149Z,21.69
2018-09-19T12:20:21.154Z,22.17
2018-09-19T12:21:21.177Z,22.37
2018-09-19T12:22:21.202Z,22.92
2018-09-19T12:23:21.228Z,22.70
2018-09-19T12:24:21.252Z,22.73
2018-09-19T12:25:21.274Z,22.20
2018-09-19T12:26:21.365Z,22.67
2018-09-19T12:27:21.327Z,22.51
2018-09-19T12:28:21.347Z,22.77
2018-09-19T12:29:21.374Z,22.88
2018-09-19T12:30:21.395Z,22.94
2018-09-19T12:31:21.422Z,22.21
2018-09-19T12:32:21.446Z,21.83
2018-09-19T12:33:21.479Z,22.15
2018-09-19T12:34:21.499Z,22.92
2018-09-19T12:35:21.519Z,22.92
2018-09-19T12:36:21.546Z,22.17
2018-09-19T12:37:21.569Z,22.14
2018-09-19T12:38:21.593Z,22.12
2018-09-19T12:39:21.615Z,22.35
2018-09-19T12:40:21.658Z,22.33
2018-09-19T12:41:21.667Z,22.72
2018-09-19T12:42:21.690Z,22.73
2018-09-19T12:43:21.714Z,22.39
2018-09-19T12:44:21.739Z,21.88
2018-09-19T12:45:21.761Z,21.92
2018-09-19T12:46:21.790Z,22.55
2018-09-19T12:47:21.812Z,23.12
2018-09-19T12:48:21.839Z,22.52
2018-09-19T12:49:21.863Z,22.97
2018-09-19T12:50:21.886Z,22.65
2018-09-19T12:51:21.915Z,22.79
2018-09-19T12:52:21.937Z,22.55
2018-09-19T12:53:21.970Z,22.27